Terminal Aerodrome Forecast
Issued by NWS

Current Version | Previous Version | Text Only | Print | Product List | Glossary On
Versions: 1 2 3 4 5 6 7 8 9 10 11 12 13 14 15 16 17 18 19 20 21 22 23 24 25 26 27 28 29 30 31 32 33 34 35 36 37 38 39 40 41 42 43 44 45 46 47
000
FTAK31 PANC 241417 AAA
TAFADQ
TAF AMD
PADQ 241417Z 2414/2512 07012KT 6SM -RA BR BKN003 OVC017
     FM241600 09005KT P6SM -SHRA SCT010 BKN025
     FM250300 14004KT 5SM -RA BR BKN005=

USA.gov is the U.S. government's official web portal to all federal, state and local government web resources and services.